Time;durP1;ratioP1;P1;durP2;ratioP2;P2;SDS_P1;SDS_P2;PMS_P1;PMS_P2;Temp;Humidity;BMP_temperature;BMP_pressure;BME280_temperature;BME280_humidity;BME280_pressure;Samples;Min_cycle;Max_cycle;Signal;HPM_P1;HPM_P2
2022/06/23 00:02:08;;;;;;;10.35;2.70;;;;;;;20.12;92.83;101072.22;5215568;28;20446;-71
2022/06/23 00:04:44;;;;;;;6.18;2.30;;;;;;;20.07;93.45;101072.06;5216120;28;20060;-71
2022/06/23 00:07:35;;;;;;;4.75;2.15;;;;;;;20.03;93.06;101073.56;5219881;28;20025;-71
2022/06/23 00:10:25;;;;;;;5.65;2.70;;;;;;;19.98;92.31;101076.13;5211926;28;20037;-71
2022/06/23 00:12:55;;;;;;;5.82;2.67;;;;;;;19.95;93.82;101074.69;5212332;28;20509;-72
2022/06/23 00:15:37;;;;;;;5.00;2.20;;;;;;;19.88;94.64;101060.28;5208539;28;20029;-72
2022/06/23 00:18:26;;;;;;;3.70;2.03;;;;;;;19.81;95.60;101060.34;5216381;28;20471;-71
2022/06/23 00:21:03;;;;;;;7.63;2.50;;;;;;;19.75;96.17;101060.41;5210971;28;20449;-72
2022/06/23 00:23:38;;;;;;;5.88;2.20;;;;;;;19.67;96.71;101064.22;5219741;28;20051;-72
2022/06/23 00:26:26;;;;;;;5.18;2.67;;;;;;;19.59;96.80;101067.19;5213521;28;20032;-72
2022/06/23 00:29:03;;;;;;;3.70;2.15;;;;;;;19.52;97.35;101067.22;5210828;28;20037;-72
2022/06/23 00:31:38;;;;;;;4.53;2.50;;;;;;;19.44;98.49;101061.25;5207963;28;20021;-72
2022/06/23 00:34:41;;;;;;;6.93;2.45;;;;;;;19.36;99.18;101059.59;5210883;28;20052;-72
2022/06/23 00:37:14;;;;;;;4.25;2.47;;;;;;;19.29;100.00;101069.69;5208982;28;20033;-72
2022/06/23 00:40:05;;;;;;;3.88;2.35;;;;;;;19.20;100.00;101060.13;5220916;28;20029;-72
2022/06/23 00:42:49;;;;;;;3.90;2.55;;;;;;;19.13;100.00;101063.72;5220215;28;20025;-72
2022/06/23 00:45:42;;;;;;;8.10;2.50;;;;;;;19.07;100.00;101061.84;5216147;28;20039;-71
2022/06/23 00:48:21;;;;;;;6.78;2.97;;;;;;;19.02;100.00;101061.66;5215590;28;20025;-71
2022/06/23 00:50:53;;;;;;;5.47;2.47;;;;;;;18.98;100.00;101060.44;5217781;28;20176;-72
2022/06/23 00:53:55;;;;;;;8.50;2.45;;;;;;;18.94;100.00;101055.66;5216487;28;20036;-71
2022/06/23 00:56:42;;;;;;;5.15;2.53;;;;;;;18.89;100.00;101059.84;5213398;28;20104;-71
2022/06/23 00:59:32;;;;;;;3.20;2.50;;;;;;;18.83;100.00;101047.13;5207660;28;20076;-71
2022/06/23 01:02:08;;;;;;;4.00;2.50;;;;;;;18.79;100.00;101048.59;5213559;28;20075;-71
2022/06/23 01:05:12;;;;;;;6.03;2.85;;;;;;;18.72;100.00;101053.22;5203801;28;20390;-71
2022/06/23 01:07:58;;;;;;;4.78;2.63;;;;;;;18.66;100.00;101064.91;5213635;28;20040;-71
2022/06/23 01:11:03;;;;;;;4.20;2.67;;;;;;;18.61;100.00;101065.56;5221673;28;20017;-72
2022/06/23 01:13:40;;;;;;;8.00;2.53;;;;;;;18.56;100.00;101064.53;5222919;28;20029;-71
2022/06/23 01:16:17;;;;;;;6.53;2.88;;;;;;;18.49;100.00;101066.44;5223783;28;20021;-71
2022/06/23 01:19:07;;;;;;;6.07;2.70;;;;;;;18.43;100.00;101073.56;5211227;28;20474;-71
2022/06/23 01:21:44;;;;;;;5.38;2.50;;;;;;;18.37;100.00;101072.53;5222137;28;20036;-71
2022/06/23 01:24:30;;;;;;;4.93;2.03;;;;;;;18.36;100.00;101070.84;5223296;28;20027;-71
2022/06/23 01:27:46;;;;;;;8.13;2.67;;;;;;;18.37;100.00;101061.69;5223749;28;20029;-71
2022/06/23 01:30:20;;;;;;;4.97;2.47;;;;;;;18.35;100.00;101065.63;5213408;28;20112;-71
2022/06/23 01:33:28;;;;;;;11.15;3.03;;;;;;;18.30;100.00;101071.69;5207124;28;20025;-71
2022/06/23 01:36:15;;;;;;;3.85;2.50;;;;;;;18.29;100.00;101072.75;5212411;28;20032;-70
2022/06/23 01:39:04;;;;;;;5.15;2.50;;;;;;;18.29;100.00;101074.63;5203526;28;20048;-71
2022/06/23 01:41:56;;;;;;;9.38;3.00;;;;;;;18.27;100.00;101066.72;5205648;28;20347;-71
2022/06/23 01:44:50;;;;;;;4.70;2.45;;;;;;;18.23;100.00;101079.03;5207875;28;20040;-70
2022/06/23 01:47:31;;;;;;;7.82;2.78;;;;;;;18.13;100.00;101075.91;5221603;28;20087;-70
2022/06/23 01:50:12;;;;;;;10.75;3.00;;;;;;;17.99;100.00;101074.25;5218149;28;20395;-70
2022/06/23 01:52:46;;;;;;;3.97;2.40;;;;;;;17.90;100.00;101065.47;5209247;28;20036;-71
2022/06/23 01:55:24;;;;;;;6.05;2.92;;;;;;;17.83;100.00;101064.66;5205591;28;20029;-71
2022/06/23 01:58:04;;;;;;;8.50;2.67;;;;;;;17.76;100.00;101063.81;5211179;28;20550;-72
2022/06/23 02:00:42;;;;;;;5.75;2.67;;;;;;;17.71;100.00;101058.97;5217486;28;20465;-71
2022/06/23 02:03:23;;;;;;;9.07;2.60;;;;;;;17.69;100.00;101065.66;5212209;28;20030;-71
2022/06/23 02:06:02;;;;;;;6.78;2.75;;;;;;;17.66;100.00;101060.63;5214906;28;20108;-71
2022/06/23 02:08:44;;;;;;;8.85;3.10;;;;;;;17.65;100.00;101059.81;5208917;28;20033;-71
2022/06/23 02:11:20;;;;;;;6.75;2.92;;;;;;;17.60;100.00;101055.00;5222090;28;20039;-71
2022/06/23 02:14:06;;;;;;;4.70;3.65;;;;;;;17.59;100.00;101052.50;5213974;28;20024;-71
2022/06/23 02:16:55;;;;;;;6.28;2.70;;;;;;;17.56;100.00;101053.72;5207027;28;20037;-71
2022/06/23 02:19:45;;;;;;;13.30;3.28;;;;;;;17.57;100.00;101055.44;5206782;28;20097;-71
2022/06/23 02:22:25;;;;;;;5.03;2.50;;;;;;;17.54;100.00;101050.41;5206495;28;20129;-71
2022/06/23 02:25:13;;;;;;;5.32;2.78;;;;;;;17.52;100.00;101046.22;5214470;28;20025;-71
2022/06/23 02:27:48;;;;;;;9.20;3.25;;;;;;;17.49;100.00;101035.78;5206507;28;20040;-72
2022/06/23 02:30:23;;;;;;;5.88;3.00;;;;;;;17.45;100.00;101029.94;5205939;28;20033;-72
2022/06/23 02:33:18;;;;;;;5.80;2.55;;;;;;;17.39;100.00;101024.53;5213428;28;20025;-72
2022/06/23 02:36:02;;;;;;;4.60;2.85;;;;;;;17.31;100.00;101028.25;5208910;28;20049;-72
2022/06/23 02:38:38;;;;;;;7.18;3.22;;;;;;;17.23;100.00;101029.28;5205905;28;20116;-71
2022/06/23 02:41:41;;;;;;;6.32;3.60;;;;;;;17.14;100.00;101025.09;5208818;28;20055;-73
2022/06/23 02:44:30;;;;;;;8.93;3.45;;;;;;;17.01;100.00;101022.34;5215129;28;20132;-72
2022/06/23 02:47:26;;;;;;;11.85;3.70;;;;;;;16.95;100.00;101029.41;5215340;28;20025;-73
2022/06/23 02:50:33;;;;;;;5.30;2.83;;;;;;;16.90;100.00;101026.47;5206057;28;20032;-72
2022/06/23 02:53:32;;;;;;;12.20;3.50;;;;;;;16.87;100.00;101016.06;5212754;28;20583;-71
2022/06/23 02:56:39;;;;;;;4.63;2.97;;;;;;;16.87;100.00;101021.50;5211089;28;20027;-71
2022/06/23 02:59:41;;;;;;;5.78;2.83;;;;;;;16.86;100.00;101019.78;5223384;28;20029;-72
2022/06/23 03:02:21;;;;;;;4.95;2.95;;;;;;;16.86;100.00;101008.97;5210964;28;20039;-72
2022/06/23 03:04:57;;;;;;;4.47;2.67;;;;;;;16.82;100.00;101008.56;5205899;28;20383;-72
2022/06/23 03:08:07;;;;;;;8.50;3.28;;;;;;;16.79;100.00;100999.97;5219294;28;20575;-71
2022/06/23 03:10:43;;;;;;;13.10;3.78;;;;;;;16.71;100.00;100998.28;5209530;28;20078;-71
2022/06/23 03:13:22;;;;;;;6.25;3.47;;;;;;;16.68;100.00;101000.53;5213655;28;20021;-71
2022/06/23 03:16:02;;;;;;;10.35;3.30;;;;;;;16.67;100.00;101005.13;5219825;28;20386;-72
2022/06/23 03:18:53;;;;;;;6.28;2.92;;;;;;;16.67;100.00;101007.84;5213003;28;20022;-71
2022/06/23 03:21:29;;;;;;;10.13;3.05;;;;;;;16.68;100.00;101008.66;5213095;28;20430;-71
2022/06/23 03:24:21;;;;;;;6.00;3.00;;;;;;;16.74;100.00;101006.00;5218905;28;20091;-71
2022/06/23 03:26:56;;;;;;;13.32;3.10;;;;;;;16.79;100.00;101011.66;5210125;28;20029;-70
2022/06/23 03:29:50;;;;;;;10.95;3.13;;;;;;;16.88;100.00;101020.44;5208480;28;20025;-71
2022/06/23 03:32:42;;;;;;;5.10;3.40;;;;;;;16.96;100.00;101011.28;5212759;28;20114;-72
2022/06/23 03:35:17;;;;;;;8.32;3.08;;;;;;;16.96;100.00;100997.72;5212162;28;20022;-71
2022/06/23 03:38:15;;;;;;;4.82;3.30;;;;;;;16.94;100.00;100995.25;5207704;28;20498;-70
2022/06/23 03:44:03;;;;;;;9.98;3.05;;;;;;;16.94;100.00;100992.53;5205282;28;20449;-71
2022/06/23 03:46:40;;;;;;;8.00;3.78;;;;;;;16.94;100.00;101002.53;5214288;28;20028;-71
2022/06/23 03:49:41;;;;;;;6.65;3.33;;;;;;;16.95;100.00;100988.78;5214027;28;20029;-71
2022/06/23 03:52:44;;;;;;;9.02;3.60;;;;;;;16.98;100.00;100992.97;5215856;28;20116;-71
2022/06/23 03:55:19;;;;;;;7.05;3.28;;;;;;;17.00;100.00;100990.88;5214542;28;20025;-71
2022/06/23 03:57:55;;;;;;;12.85;3.83;;;;;;;17.03;100.00;100980.47;5207540;28;20552;-71
2022/06/23 04:00:41;;;;;;;8.25;3.22;;;;;;;17.05;100.00;100980.25;5221074;28;20016;-71
2022/06/23 04:03:45;;;;;;;7.72;3.28;;;;;;;17.07;100.00;100984.44;5207217;28;20104;-72
2022/06/23 04:06:30;;;;;;;7.65;3.88;;;;;;;17.13;100.00;101001.75;5205663;28;20029;-71
2022/06/23 04:09:05;;;;;;;9.88;3.42;;;;;;;17.17;100.00;100999.44;5206752;28;20112;-72
2022/06/23 04:12:07;;;;;;;8.77;3.67;;;;;;;17.22;100.00;101013.22;5218051;28;20029;-71
2022/06/23 04:14:56;;;;;;;6.28;3.47;;;;;;;17.24;100.00;101000.31;5205862;28;20079;-71
2022/06/23 04:17:46;;;;;;;5.47;3.22;;;;;;;17.26;100.00;100998.22;5213876;28;20075;-72
2022/06/23 04:20:34;;;;;;;8.38;3.95;;;;;;;17.27;100.00;100995.31;5206252;28;20488;-72
2022/06/23 04:23:15;;;;;;;6.47;3.75;;;;;;;17.29;100.00;101000.53;5217903;28;20032;-72
2022/06/23 04:25:52;;;;;;;10.52;4.03;;;;;;;17.30;100.00;101004.91;5204545;28;20025;-73
2022/06/23 04:28:27;;;;;;;7.15;3.53;;;;;;;17.29;100.00;101003.22;5206956;28;20022;-73
2022/06/23 04:30:59;;;;;;;;;;;;;;;17.31;100.00;101006.56;5205338;28;20036;-72
2022/06/23 04:33:34;;;;;;;8.25;3.03;;;;;;;17.35;100.00;101007.81;5205003;28;19909;-74
2022/06/23 04:36:14;;;;;;;6.32;3.50;;;;;;;17.39;100.00;101021.81;5205918;28;20147;-72
2022/06/23 04:38:52;;;;;;;5.32;3.15;;;;;;;17.36;100.00;101006.78;5218397;28;20071;-72
2022/06/23 04:41:29;;;;;;;5.35;3.75;;;;;;;17.40;100.00;101009.91;5212083;28;20032;-74
2022/06/23 04:44:16;;;;;;;9.43;3.33;;;;;;;17.43;100.00;101009.50;5217936;28;20648;-72
2022/06/23 04:47:20;;;;;;;8.27;3.28;;;;;;;17.48;100.00;101018.69;5213723;28;20078;-74
2022/06/23 04:50:23;;;;;;;10.10;3.50;;;;;;;17.51;100.00;101025.56;5219591;28;20043;-72
2022/06/23 04:52:55;;;;;;;7.28;3.38;;;;;;;17.54;100.00;101019.75;5219489;28;20037;-72
2022/06/23 04:55:29;;;;;;;9.02;3.40;;;;;;;17.59;100.00;101017.25;5214221;28;20056;-72
2022/06/23 04:58:21;;;;;;;10.05;3.63;;;;;;;17.68;100.00;101024.13;5209629;28;20120;-72
2022/06/23 05:00:53;;;;;;;7.53;3.70;;;;;;;17.78;100.00;101019.16;5204399;28;20552;-72
2022/06/23 05:03:44;;;;;;;10.75;3.40;;;;;;;17.86;100.00;101027.06;5213507;28;20031;-71
2022/06/23 05:06:31;;;;;;;6.40;3.38;;;;;;;17.96;100.00;101029.34;5209823;28;20060;-71
2022/06/23 05:09:10;;;;;;;5.25;3.47;;;;;;;18.04;100.00;101020.16;5210372;28;20074;-71
2022/06/23 05:11:46;;;;;;;9.90;4.55;;;;;;;18.14;100.00;101028.72;5205824;28;20025;-71
2022/06/23 05:14:41;;;;;;;8.77;3.70;;;;;;;18.24;100.00;101026.38;5211495;28;20035;-71
2022/06/23 05:17:19;;;;;;;9.88;3.90;;;;;;;18.30;100.00;101030.97;5209339;28;20028;-71
2022/06/23 05:19:55;;;;;;;8.13;3.75;;;;;;;18.40;100.00;101026.97;5205823;28;20108;-71
2022/06/23 05:22:30;;;;;;;9.55;3.92;;;;;;;18.50;100.00;101030.91;5211690;28;20056;-71
2022/06/23 05:25:27;;;;;;;10.93;3.60;;;;;;;18.60;100.00;101022.31;5211790;28;20047;-71
2022/06/23 05:28:01;;;;;;;10.88;4.07;;;;;;;18.71;100.00;101024.38;5207379;28;20609;-71
2022/06/23 05:30:38;;;;;;;8.40;4.17;;;;;;;18.82;100.00;101022.88;5206576;28;20026;-71
2022/06/23 05:33:46;;;;;;;11.05;3.83;;;;;;;18.93;100.00;101032.25;5205298;28;20116;-71
2022/06/23 05:36:43;;;;;;;8.10;3.55;;;;;;;19.06;100.00;101026.72;5201149;28;20491;-71
2022/06/23 05:39:22;;;;;;;5.68;3.75;;;;;;;19.15;100.00;101031.69;5213600;28;20025;-71
2022/06/23 05:41:58;;;;;;;10.10;3.42;;;;;;;19.27;100.00;101039.97;5210370;28;20025;-71
2022/06/23 05:44:32;;;;;;;7.63;3.78;;;;;;;19.38;100.00;101033.88;5214009;28;20017;-71
2022/06/23 05:47:03;;;;;;;9.20;4.18;;;;;;;19.51;100.00;101037.53;5215101;28;20116;-71
2022/06/23 05:49:40;;;;;;;14.82;4.07;;;;;;;19.59;100.00;101038.13;5205179;28;20109;-71
2022/06/23 05:52:18;;;;;;;7.47;4.00;;;;;;;19.75;100.00;101035.91;5221062;28;20052;-71
2022/06/23 05:54:57;;;;;;;7.18;3.80;;;;;;;19.88;100.00;101039.38;5213872;28;20029;-71
2022/06/23 05:57:28;;;;;;;7.40;3.63;;;;;;;20.07;100.00;101036.66;5210750;28;20036;-71
2022/06/23 06:00:18;;;;;;;11.88;3.85;;;;;;;20.35;100.00;101039.72;5220726;28;20475;-71
2022/06/23 06:03:00;;;;;;;7.43;3.75;;;;;;;20.83;100.00;101038.97;5215409;28;20032;-71
2022/06/23 06:05:35;;;;;;;12.85;4.32;;;;;;;21.62;100.00;101041.66;5212528;28;20033;-71
2022/06/23 06:08:12;;;;;;;12.43;3.40;;;;;;;22.43;100.00;101040.03;5213869;28;20029;-71
2022/06/23 06:10:43;;;;;;;8.18;3.95;;;;;;;23.25;100.00;101037.09;5215219;28;20037;-71
2022/06/23 06:13:20;;;;;;;7.63;3.63;;;;;;;23.86;100.00;101046.38;5205472;28;20554;-71
2022/06/23 06:15:54;;;;;;;9.40;4.72;;;;;;;24.31;100.00;101042.69;5208143;28;20053;-71
2022/06/23 06:18:42;;;;;;;10.75;4.53;;;;;;;24.80;100.00;101040.06;5207563;28;20494;-71
2022/06/23 06:21:16;;;;;;;10.73;4.00;;;;;;;25.18;100.00;101039.13;5207604;28;20033;-71
2022/06/23 06:24:06;;;;;;;8.63;4.60;;;;;;;25.60;100.00;101040.34;5210296;28;20029;-71
2022/06/23 06:26:42;;;;;;;12.45;4.10;;;;;;;25.80;100.00;101033.16;5206951;28;20095;-72
2022/06/23 06:29:19;;;;;;;9.45;4.82;;;;;;;26.04;100.00;101036.31;5219721;28;20329;-72
2022/06/23 06:31:55;;;;;;;9.32;4.47;;;;;;;25.91;100.00;101028.56;5208129;28;20116;-72
2022/06/23 06:34:33;;;;;;;14.02;4.65;;;;;;;26.38;100.00;101026.91;5204364;28;20026;-72
2022/06/23 06:37:07;;;;;;;8.75;4.43;;;;;;;26.83;100.00;101023.56;5207342;28;20053;-72
2022/06/23 06:39:40;;;;;;;;;;;;;;;27.13;100.00;101036.59;5205609;28;20021;-72
2022/06/23 06:42:27;;;;;;;10.45;4.80;;;;;;;27.22;100.00;101034.97;5206858;28;19913;-72
2022/06/23 06:45:03;;;;;;;11.77;4.55;;;;;;;26.95;100.00;101040.63;5209003;28;20482;-72
2022/06/23 06:47:37;;;;;;;11.73;5.28;;;;;;;27.32;100.00;101034.16;5208505;28;20022;-72
2022/06/23 06:50:34;;;;;;;14.77;5.03;;;;;;;27.31;100.00;101041.59;5213249;28;20025;-72
2022/06/23 06:53:14;;;;;;;12.32;5.60;;;;;;;27.08;100.00;101040.16;5214017;28;20094;-72
2022/06/23 06:55:50;;;;;;;11.73;5.53;;;;;;;27.12;100.00;101053.41;5217328;28;20024;-72
2022/06/23 06:58:28;;;;;;;19.25;5.75;;;;;;;27.48;100.00;101044.09;5213066;28;20029;-72
2022/06/23 07:01:05;;;;;;;14.77;5.30;;;;;;;27.70;100.00;101032.78;5209689;28;20466;-72
2022/06/23 07:03:39;;;;;;;16.70;5.88;;;;;;;27.37;100.00;101039.69;5213680;28;20026;-72
2022/06/23 07:06:17;;;;;;;12.77;5.25;;;;;;;27.44;100.00;101040.22;5216760;28;20742;-72
2022/06/23 07:09:04;;;;;;;14.93;5.60;;;;;;;28.21;100.00;101040.19;5223382;28;20391;-72
2022/06/23 07:11:36;;;;;;;12.73;5.45;;;;;;;28.44;100.00;101038.81;5225227;28;20064;-72
2022/06/23 07:14:17;;;;;;;12.75;5.82;;;;;;;27.72;100.00;101046.34;5224536;28;20529;-72
2022/06/23 07:17:08;;;;;;;11.52;5.97;;;;;;;28.02;100.00;101040.81;5210763;28;20434;-72
2022/06/23 07:19:46;;;;;;;15.32;5.90;;;;;;;28.48;100.00;101049.00;5222926;28;20032;-72
2022/06/23 07:22:36;;;;;;;18.50;6.50;;;;;;;28.30;100.00;101053.13;5209578;28;20401;-72
2022/06/23 07:25:31;;;;;;;14.88;5.80;;;;;;;28.20;100.00;101052.34;5222297;28;20020;-72
2022/06/23 07:28:39;;;;;;;17.67;5.73;;;;;;;28.50;100.00;101046.78;5218917;28;20036;-72
2022/06/23 07:31:16;;;;;;;19.20;5.90;;;;;;;28.67;100.00;101056.63;5211584;28;20284;-72
2022/06/23 07:33:53;;;;;;;15.20;6.50;;;;;;;28.92;100.00;101059.31;5215699;28;20035;-72
2022/06/23 07:36:34;;;;;;;16.48;6.47;;;;;;;29.16;100.00;101062.22;5216081;28;20025;-72
2022/06/23 07:39:10;;;;;;;17.80;6.50;;;;;;;29.06;100.00;101054.81;5218492;28;20017;-73
2022/06/23 07:42:00;;;;;;;10.05;5.82;;;;;;;29.55;100.00;101051.22;5208135;28;20513;-72
2022/06/23 07:45:07;;;;;;;13.23;6.88;;;;;;;29.16;100.00;101053.94;5215221;28;20285;-72
2022/06/23 07:47:37;;;;;;;15.27;6.53;;;;;;;28.72;100.00;101057.47;5207387;28;20029;-72
2022/06/23 07:50:09;;;;;;;13.82;6.32;;;;;;;28.93;100.00;101066.47;5210482;28;20498;-72
2022/06/23 07:52:42;;;;;;;10.40;5.88;;;;;;;29.02;100.00;101059.28;5214631;28;20021;-72
2022/06/23 07:55:34;;;;;;;14.40;6.38;;;;;;;29.07;100.00;101067.53;5204601;28;20024;-73
2022/06/23 07:58:05;;;;;;;17.30;6.70;;;;;;;28.54;100.00;101060.84;5209607;28;20056;-72
2022/06/23 08:00:40;;;;;;;17.15;6.40;;;;;;;29.21;100.00;101061.38;5208723;28;20017;-72
2022/06/23 08:03:16;;;;;;;12.50;6.47;;;;;;;29.77;100.00;101059.06;5208391;28;20087;-72
2022/06/23 08:05:52;;;;;;;12.57;5.18;;;;;;;29.40;100.00;101057.66;5208269;28;20560;-72
2022/06/23 08:08:29;;;;;;;12.90;5.30;;;;;;;30.07;100.00;101073.72;5215008;28;20034;-73
2022/06/23 08:13:59;;;;;;;14.73;5.15;;;;;;;30.56;100.00;101069.91;5209138;28;20496;-73
2022/06/23 08:19:44;;;;;;;13.90;5.57;;;;;;;27.80;100.00;101081.59;5209922;28;20061;-72
2022/06/23 08:22:21;;;;;;;21.40;6.28;;;;;;;27.49;100.00;101067.78;5212616;28;20048;-73
2022/06/23 08:24:57;;;;;;;13.65;6.25;;;;;;;27.08;100.00;101069.63;5201775;28;20032;-72
2022/06/23 08:27:28;;;;;;;14.32;5.65;;;;;;;26.72;100.00;101063.16;5207275;28;20021;-72
2022/06/23 08:30:05;;;;;;;17.83;6.43;;;;;;;26.51;100.00;101057.53;5212408;28;20374;-72
2022/06/23 08:32:38;;;;;;;13.68;7.35;;;;;;;26.17;100.00;101056.22;5203494;28;20105;-72
2022/06/23 08:35:20;;;;;;;16.83;6.60;;;;;;;25.89;100.00;101052.69;5213252;28;20470;-73
2022/06/23 08:38:10;;;;;;;14.05;7.47;;;;;;;25.92;100.00;101045.88;5214742;28;20024;-72
2022/06/23 08:40:57;;;;;;;17.02;6.57;;;;;;;26.79;100.00;101050.78;5208907;28;20033;-72
2022/06/23 08:44:05;;;;;;;14.43;6.53;;;;;;;27.52;100.00;101055.41;5212710;28;20107;-72
2022/06/23 08:47:11;;;;;;;14.80;6.95;;;;;;;27.25;100.00;101063.88;5212172;28;20022;-72
2022/06/23 08:50:05;;;;;;;13.90;6.65;;;;;;;27.33;100.00;101053.16;5214321;28;20605;-72
2022/06/23 08:52:56;;;;;;;10.23;5.97;;;;;;;27.74;100.00;101052.41;5207971;28;20458;-72
2022/06/23 08:55:34;;;;;;;12.80;6.00;;;;;;;28.44;100.00;101061.69;5209694;28;20029;-73
2022/06/23 08:58:11;;;;;;;16.60;7.10;;;;;;;28.39;100.00;101064.47;5207172;28;20069;-72
2022/06/23 09:01:05;;;;;;;10.82;5.80;;;;;;;28.03;100.00;101070.03;5213122;28;20437;-72
2022/06/23 09:03:40;;;;;;;12.98;6.78;;;;;;;27.84;100.00;101064.25;5214722;28;20022;-73
2022/06/23 09:06:18;;;;;;;10.60;5.40;;;;;;;28.64;100.00;101063.56;5216766;28;20114;-73
2022/06/23 09:09:05;;;;;;;11.75;4.80;;;;;;;28.75;100.00;101064.34;5220054;28;20021;-72
2022/06/23 09:12:13;;;;;;;6.07;4.78;;;;;;;28.02;100.00;101064.78;5223150;28;20055;-72
2022/06/23 09:15:17;;;;;;;10.68;5.30;;;;;;;27.57;100.00;101058.97;5212372;28;20463;-72
2022/06/23 09:18:17;;;;;;;8.88;4.93;;;;;;;27.62;100.00;101052.66;5213276;28;20116;-72
2022/06/23 09:21:04;;;;;;;7.55;4.65;;;;;;;27.75;100.00;101051.28;5216105;28;20060;-73
2022/06/23 09:23:58;;;;;;;10.30;5.75;;;;;;;28.24;100.00;101048.75;5212861;28;20509;-72
2022/06/23 09:26:30;;;;;;;10.07;5.40;;;;;;;28.16;100.00;101043.78;5207697;28;20088;-72
2022/06/23 09:29:09;;;;;;;10.13;5.40;;;;;;;28.38;100.00;101044.34;5208641;28;20030;-72
2022/06/23 09:31:59;;;;;;;10.65;5.25;;;;;;;28.26;100.00;101043.75;5225496;28;20043;-72
2022/06/23 09:34:57;;;;;;;11.80;5.05;;;;;;;28.95;100.00;101038.59;5225353;28;20032;-73
2022/06/23 09:38:05;;;;;;;11.13;5.13;;;;;;;28.94;100.00;101040.53;5222147;28;20029;-73
2022/06/23 09:40:42;;;;;;;9.85;4.82;;;;;;;29.23;100.00;101031.53;5223972;28;20092;-73
2022/06/23 09:43:31;;;;;;;10.25;4.15;;;;;;;29.88;100.00;101032.16;5206461;28;20029;-72
2022/06/23 09:46:39;;;;;;;9.68;4.07;;;;;;;29.89;100.00;101047.63;5225190;28;20441;-73
2022/06/23 09:49:11;;;;;;;11.38;3.72;;;;;;;29.93;100.00;101041.22;5210561;28;20029;-73
2022/06/23 09:52:18;;;;;;;7.65;3.83;;;;;;;30.73;100.00;101039.03;5210716;28;20505;-73
2022/06/23 09:55:25;;;;;;;8.00;4.57;;;;;;;30.30;100.00;101039.75;5210351;28;20029;-74
2022/06/23 09:58:11;;;;;;;5.78;4.30;;;;;;;29.42;100.00;101046.34;5212746;28;20496;-74
2022/06/23 10:01:00;;;;;;;12.73;4.65;;;;;;;28.62;100.00;101046.47;5212334;28;20455;-73
2022/06/23 10:03:50;;;;;;;7.28;4.32;;;;;;;28.65;100.00;101043.94;5213906;28;20031;-73
2022/06/23 10:06:39;;;;;;;9.27;4.22;;;;;;;29.39;100.00;101049.66;5217422;28;20052;-72
2022/06/23 10:09:11;;;;;;;6.20;4.30;;;;;;;29.88;100.00;101048.75;5206546;28;20499;-72
2022/06/23 10:11:50;;;;;;;10.13;4.85;;;;;;;29.09;100.00;101050.69;5219966;28;20068;-72
2022/06/23 10:14:58;;;;;;;12.25;4.50;;;;;;;28.96;100.00;101051.28;5207480;28;20509;-71
2022/06/23 10:17:41;;;;;;;10.85;4.63;;;;;;;28.36;100.00;101045.69;5206588;28;20120;-72
2022/06/23 10:20:29;;;;;;;8.63;5.07;;;;;;;29.05;100.00;101047.66;5211513;28;20429;-72
2022/06/23 10:23:36;;;;;;;11.20;4.70;;;;;;;29.37;100.00;101046.38;5212230;28;20124;-71
2022/06/23 10:26:34;;;;;;;13.00;4.80;;;;;;;29.67;100.00;101037.00;5215477;28;20031;-72
2022/06/23 10:29:23;;;;;;;13.15;4.47;;;;;;;29.67;100.00;101039.78;5210651;28;20025;-72
2022/06/23 10:32:12;;;;;;;14.02;5.40;;;;;;;29.58;100.00;101033.25;5222473;28;20033;-71
2022/06/23 10:35:11;;;;;;;11.23;4.72;;;;;;;29.78;100.00;101030.31;5211115;28;20031;-72
2022/06/23 10:38:11;;;;;;;11.23;4.70;;;;;;;29.70;100.00;101030.09;5218902;28;20079;-73
2022/06/23 10:41:16;;;;;;;10.18;4.20;;;;;;;29.31;100.00;101017.09;5224617;28;20104;-72
2022/06/23 10:44:21;;;;;;;10.85;4.07;;;;;;;29.09;100.00;101017.53;5204837;28;20037;-72
2022/06/23 10:47:19;;;;;;;9.57;4.07;;;;;;;29.56;100.00;101018.88;5211982;28;20020;-72
2022/06/23 10:50:11;;;;;;;8.02;4.03;;;;;;;29.48;100.00;101005.66;5225303;28;20445;-73
2022/06/23 10:52:49;;;;;;;10.52;3.85;;;;;;;29.74;100.00;101000.75;5225004;28;21254;-73
2022/06/23 10:55:32;;;;;;;9.68;4.43;;;;;;;29.83;100.00;100999.03;5224248;28;20448;-72
2022/06/23 10:58:04;;;;;;;9.32;4.40;;;;;;;29.09;100.00;101000.97;5217210;28;20025;-73
2022/06/23 11:00:40;;;;;;;11.00;4.07;;;;;;;29.04;100.00;100996.28;5224093;28;20086;-72
2022/06/23 11:03:35;;;;;;;8.25;4.35;;;;;;;29.41;100.00;100997.69;5224475;28;20116;-72
2022/06/23 11:06:21;;;;;;;8.70;4.30;;;;;;;29.45;100.00;100990.47;5224370;28;20374;-73
2022/06/23 11:09:03;;;;;;;8.57;4.80;;;;;;;29.50;100.00;100995.94;5211089;28;20033;-73
2022/06/23 11:11:52;;;;;;;7.70;3.83;;;;;;;29.90;100.00;100982.91;5225179;28;20021;-72
2022/06/23 11:14:38;;;;;;;13.35;5.07;;;;;;;30.32;100.00;100978.56;5224646;28;20028;-73
2022/06/23 11:17:18;;;;;;;10.75;3.97;;;;;;;30.70;100.00;100973.97;5224518;28;20021;-73
2022/06/23 11:20:24;;;;;;;11.23;5.25;;;;;;;29.42;100.00;100989.13;5224605;28;20009;-72
2022/06/23 11:23:01;;;;;;;9.20;4.38;;;;;;;29.08;100.00;100991.03;5203911;28;20029;-72
2022/06/23 11:25:36;;;;;;;13.48;4.93;;;;;;;29.02;100.00;100987.47;5203265;28;20021;-72
2022/06/23 11:28:24;;;;;;;15.60;5.45;;;;;;;29.55;100.00;100979.34;5216498;28;20029;-72
2022/06/23 11:31:04;;;;;;;14.38;5.22;;;;;;;29.61;100.00;100980.13;5225064;28;20032;-71
2022/06/23 11:33:54;;;;;;;8.50;4.57;;;;;;;29.32;100.00;100980.06;5224761;28;20024;-72
2022/06/23 11:37:02;;;;;;;11.32;4.35;;;;;;;29.41;100.00;100973.63;5211893;28;20021;-72
2022/06/23 11:39:54;;;;;;;8.68;3.83;;;;;;;29.27;100.00;100975.44;5222790;28;20025;-72
2022/06/23 11:42:43;;;;;;;11.68;4.90;;;;;;;29.56;100.00;100969.94;5217228;28;20453;-72
2022/06/23 11:45:29;;;;;;;11.10;4.97;;;;;;;29.88;100.00;100966.59;5225250;28;20021;-72
2022/06/23 11:48:23;;;;;;;7.85;3.70;;;;;;;30.21;100.00;100969.56;5220050;28;20086;-72
2022/06/23 11:51:20;;;;;;;9.60;4.22;;;;;;;30.46;96.07;100960.13;5206413;28;20025;-72
2022/06/23 11:54:07;;;;;;;5.72;3.40;;;;;;;30.37;95.91;100968.28;5215265;28;20029;-72
2022/06/23 11:57:02;;;;;;;8.40;3.05;;;;;;;30.49;93.72;100959.56;5211608;28;20033;-72
2022/06/23 11:59:40;;;;;;;8.10;4.40;;;;;;;30.08;94.99;100973.84;5211276;28;20017;-72
2022/06/23 12:02:11;;;;;;;11.45;3.90;;;;;;;29.74;98.48;100964.81;5223177;28;20104;-73
2022/06/23 12:05:05;;;;;;;8.45;3.58;;;;;;;29.53;98.92;100955.88;5213704;28;20111;-72
2022/06/23 12:07:44;;;;;;;7.78;3.13;;;;;;;29.62;96.66;100963.28;5205535;28;20375;-72
2022/06/23 12:10:19;;;;;;;7.85;2.88;;;;;;;29.38;94.78;100971.47;5217821;28;20029;-72
2022/06/23 12:12:56;;;;;;;6.53;3.15;;;;;;;29.63;94.82;100959.38;5204260;28;20025;-72
2022/06/23 12:15:31;;;;;;;13.13;3.10;;;;;;;29.82;93.18;100962.25;5217254;28;20024;-72
2022/06/23 12:18:13;;;;;;;8.35;3.03;;;;;;;29.60;93.09;100956.38;5217010;28;20036;-73
2022/06/23 12:21:06;;;;;;;8.68;2.80;;;;;;;29.72;93.04;100958.72;5216940;28;20039;-72
2022/06/23 12:23:51;;;;;;;10.13;3.80;;;;;;;30.03;89.39;100957.31;5209085;28;20079;-71
2022/06/23 12:26:59;;;;;;;8.45;3.05;;;;;;;29.98;90.63;100962.91;5210622;28;20060;-72
2022/06/23 12:29:39;;;;;;;6.85;3.28;;;;;;;29.80;91.90;100941.53;5208520;28;20033;-72
2022/06/23 12:32:47;;;;;;;8.15;3.13;;;;;;;30.01;91.44;100940.19;5212308;28;20399;-72
2022/06/23 12:35:40;;;;;;;9.52;3.05;;;;;;;29.80;92.06;100939.56;5216767;28;20029;-72
2022/06/23 12:38:18;;;;;;;8.35;3.70;;;;;;;30.23;90.58;100941.63;5216986;28;20067;-72
2022/06/23 12:41:06;;;;;;;10.63;3.03;;;;;;;30.10;88.10;100938.41;5216375;28;20021;-72
2022/06/23 12:43:45;;;;;;;8.18;2.95;;;;;;;29.80;90.46;100945.09;5204023;28;20028;-72
2022/06/23 12:46:42;;;;;;;6.43;2.35;;;;;;;30.20;87.82;100934.72;5217290;28;20021;-73